Time;durP1;ratioP1;P1;durP2;ratioP2;P2;SDS_P1;SDS_P2;PMS_P1;PMS_P2;Temp;Humidity;BMP_temperature;BMP_pressure;BME280_temperature;BME280_humidity;BME280_pressure;Samples;Min_cycle;Max_cycle;Signal;HPM_P1;HPM_P2
2024/04/12 00:01:46;;;;;;;;;;;;;;;12.95;54.85;101584.97;107596;1259;60731;-75
2024/04/12 00:04:15;;;;;;;;;;;;;;;12.93;54.66;101584.30;107565;1263;75603;-76
2024/04/12 00:06:42;;;;;;;;;;;;;;;12.90;54.37;101580.94;107613;1262;73030;-78
2024/04/12 00:09:09;;;;;;;;;;;;;;;12.88;54.29;101582.15;107590;1265;72759;-77
2024/04/12 00:11:39;;;;;;;;;;;;;;;12.86;54.02;101579.70;107562;1261;61841;-76
2024/04/12 00:14:06;;;;;;;;;;;;;;;12.85;53.82;101578.50;107600;1261;61872;-78
2024/04/12 00:16:38;;;;;;;;;;;;;;;12.83;53.66;101576.30;107589;1262;75332;-77
2024/04/12 00:19:12;;;;;;;;;;;;;;;12.82;53.45;101575.29;107661;1262;72744;-76
2024/04/12 00:21:41;;;;;;;;;;;;;;;12.81;53.32;101574.05;107547;1262;72781;-75
2024/04/12 00:24:11;;;;;;;;;;;;;;;12.80;53.32;101574.15;107595;1265;62017;-77
2024/04/12 00:26:42;;;;;;;;;;;;;;;12.79;53.32;101578.52;107574;1261;61932;-77
2024/04/12 00:29:25;;;;;;;;;;;;;;;12.76;53.20;101575.75;107684;1259;75231;-77
2024/04/12 00:31:55;;;;;;;;;;;;;;;12.73;53.48;101580.27;107579;1259;72844;-77
2024/04/12 00:34:26;;;;;;;;;;;;;;;12.70;53.72;101583.11;107752;1259;72457;-77
2024/04/12 00:36:54;;;;;;;;;;;;;;;12.40;54.73;101584.16;107691;1262;62052;-77
2024/04/12 00:39:35;;;;;;;;;;;;;;;12.29;55.52;101581.98;107546;1261;62061;-77
2024/04/12 00:42:07;;;;;;;;;;;;;;;12.22;56.41;101584.27;107581;1259;75275;-75
2024/04/12 00:44:40;;;;;;;;;;;;;;;12.18;56.95;101582.98;107667;1260;71358;-76
2024/04/12 00:47:16;;;;;;;;;;;;;;;12.13;57.11;101581.95;107667;1262;72509;-77
2024/04/12 00:49:51;;;;;;;;;;;;;;;12.10;57.13;101578.95;107525;1262;62044;-78
2024/04/12 00:52:28;;;;;;;;;;;;;;;12.07;57.24;101579.27;107537;1262;61932;-76
2024/04/12 00:55:03;;;;;;;;;;;;;;;12.04;57.20;101573.81;107593;1261;75557;-76
2024/04/12 00:57:36;;;;;;;;;;;;;;;12.19;56.84;101572.52;107576;1263;72866;-76
2024/04/12 01:00:08;;;;;;;;;;;;;;;12.17;56.95;101570.33;107522;1263;71374;-76
2024/04/12 01:02:39;;;;;;;;;;;;;;;12.31;56.88;101569.33;107534;1260;62042;-76
2024/04/12 01:05:08;;;;;;;;;;;;;;;12.34;56.94;101569.80;107614;1262;62063;-77
2024/04/12 01:07:36;;;;;;;;;;;;;;;12.32;56.78;101564.00;107542;1262;74329;-77
2024/04/12 01:10:06;;;;;;;;;;;;;;;12.27;56.89;101566.87;107581;1260;73277;-77
2024/04/12 01:12:33;;;;;;;;;;;;;;;12.27;56.48;101565.27;107551;1260;72784;-79
2024/04/12 01:15:00;;;;;;;;;;;;;;;12.26;56.28;101565.98;107694;1260;61986;-76
2024/04/12 01:17:26;;;;;;;;;;;;;;;12.25;56.32;101563.83;107471;1259;61936;-77
2024/04/12 01:19:55;;;;;;;;;;;;;;;12.24;56.28;101561.92;107690;1259;74613;-77
2024/04/12 01:22:25;;;;;;;;;;;;;;;12.22;56.47;101565.92;107666;1259;71197;-76
2024/04/12 01:24:52;;;;;;;;;;;;;;;12.20;56.70;101568.03;107563;1260;72508;-76
2024/04/12 01:27:19;;;;;;;;;;;;;;;12.16;57.16;101566.80;107569;1261;62018;-78
2024/04/12 01:29:45;;;;;;;;;;;;;;;12.13;57.35;101567.48;107687;1259;61936;-76
2024/04/12 01:32:12;;;;;;;;;;;;;;;12.10;57.50;101565.02;107700;1265;76034;-76
2024/04/12 01:34:50;;;;;;;;;;;;;;;12.07;58.07;101566.59;107614;1259;72950;-76
2024/04/12 01:37:21;;;;;;;;;;;;;;;12.02;58.85;101565.00;107955;1260;72424;-78
2024/04/12 01:40:02;;;;;;;;;;;;;;;11.97;59.70;101564.02;107517;1260;60829;-76
2024/04/12 01:42:42;;;;;;;;;;;;;;;11.86;61.58;101563.42;107480;1260;61817;-75
2024/04/12 01:45:15;;;;;;;;;;;;;;;11.64;64.15;101559.95;107586;1261;75556;-76
2024/04/12 01:47:42;;;;;;;;;;;;;;;11.62;65.32;101558.95;107543;1260;72429;-77
2024/04/12 01:50:12;;;;;;;;;;;;;;;11.59;66.83;101560.61;107681;1259;71350;-77
2024/04/12 01:52:54;;;;;;;;;;;;;;;11.51;67.99;101563.03;107543;1265;62108;-77
2024/04/12 01:55:22;;;;;;;;;;;;;;;11.44;69.58;101563.64;107575;1261;62391;-76
2024/04/12 01:57:51;;;;;;;;;;;;;;;11.39;70.81;101563.86;107640;1259;75313;-77
2024/04/12 02:00:20;;;;;;;;;;;;;;;11.35;72.02;101564.38;107702;1260;72788;-77
2024/04/12 02:02:51;;;;;;;;;;;;;;;11.29;73.25;101562.55;107592;1260;72488;-77
2024/04/12 02:05:29;;;;;;;;;;;;;;;11.26;74.11;101563.66;107555;1260;61868;-76
2024/04/12 02:07:56;;;;;;;;;;;;;;;11.21;74.92;101565.97;107768;1259;61910;-76
2024/04/12 02:10:22;;;;;;;;;;;;;;;11.17;75.57;101565.40;107680;1261;75224;-77
2024/04/12 02:12:53;;;;;;;;;;;;;;;11.12;76.45;101564.39;107575;1260;72858;-77
2024/04/12 02:15:25;;;;;;;;;;;;;;;11.04;77.39;101565.14;107640;1259;70413;-76
2024/04/12 02:17:57;;;;;;;;;;;;;;;10.98;78.50;101566.33;107665;1265;61868;-76
2024/04/12 02:20:33;;;;;;;;;;;;;;;10.92;79.60;101564.71;107630;1260;62048;-76
2024/04/12 02:23:00;;;;;;;;;;;;;;;10.85;80.99;101568.95;107689;1259;75461;-76
2024/04/12 02:25:27;;;;;;;;;;;;;;;10.81;82.22;101567.95;107672;1260;72889;-76
2024/04/12 02:27:56;;;;;;;;;;;;;;;10.77;83.34;101568.19;107515;1259;72588;-76
2024/04/12 02:30:23;;;;;;;;;;;;;;;10.74;83.98;101563.72;107647;1260;62001;-77
2024/04/12 02:32:50;;;;;;;;;;;;;;;10.70;85.10;101569.72;107605;1259;61917;-76
2024/04/12 02:35:17;;;;;;;;;;;;;;;10.65;85.62;101570.05;107729;1259;75219;-77
2024/04/12 02:37:47;;;;;;;;;;;;;;;10.62;86.23;101571.38;107721;1264;72744;-77
2024/04/12 02:40:15;;;;;;;;;;;;;;;10.57;86.80;101571.05;107543;1262;73318;-77
2024/04/12 02:42:43;;;;;;;;;;;;;;;10.54;88.02;101573.20;107528;1260;61976;-76
2024/04/12 02:45:12;;;;;;;;;;;;;;;10.51;89.20;101575.42;107554;1261;62746;-76
2024/04/12 02:47:42;;;;;;;;;;;;;;;10.48;90.63;101577.82;107625;1260;75297;-79
2024/04/12 02:50:10;;;;;;;;;;;;;;;10.54;91.63;101577.85;107725;1259;72758;-76
2024/04/12 02:52:43;;;;;;;;;;;;;;;10.77;90.48;101576.21;107679;1259;72667;-77
2024/04/12 02:55:13;;;;;;;;;;;;;;;10.83;89.89;101574.46;107722;1259;61845;-78
2024/04/12 02:57:41;;;;;;;;;;;;;;;10.84;89.70;101576.73;107644;1260;61940;-77
2024/04/12 03:00:21;;;;;;;;;;;;;;;10.85;89.75;101576.59;107580;1265;62052;-77
2024/04/12 03:02:51;;;;;;;;;;;;;;;10.87;89.70;101581.06;107641;1264;72794;-76
2024/04/12 03:05:18;;;;;;;;;;;;;;;10.87;89.46;101585.25;107625;1264;72758;-76
2024/04/12 03:07:46;;;;;;;;;;;;;;;10.88;89.20;101585.73;107637;1259;61859;-77
2024/04/12 03:10:18;;;;;;;;;;;;;;;10.87;88.82;101588.40;107637;1259;61926;-77
2024/04/12 03:12:45;;;;;;;;;;;;;;;10.87;88.06;101590.11;107628;1262;75467;-76
2024/04/12 03:15:14;;;;;;;;;;;;;;;10.87;87.73;101593.64;107652;1264;71281;-77
2024/04/12 03:17:47;;;;;;;;;;;;;;;10.87;87.31;101595.34;107616;1261;72487;-76
2024/04/12 03:20:15;;;;;;;;;;;;;;;10.86;86.86;101597.39;107671;1264;61948;-78
2024/04/12 03:22:42;;;;;;;;;;;;;;;10.86;86.68;101598.09;107643;1259;61910;-78
2024/04/12 03:25:09;;;;;;;;;;;;;;;10.86;86.23;101599.70;107667;1259;75388;-76
2024/04/12 03:27:38;;;;;;;;;;;;;;;10.84;85.42;101599.77;107580;1263;72594;-77
2024/04/12 03:30:13;;;;;;;;;;;;;;;10.84;84.66;101598.90;107491;1261;71122;-79
2024/04/12 03:32:46;;;;;;;;;;;;;;;10.84;84.43;101595.33;107581;1260;62047;-77
2024/04/12 03:35:16;;;;;;;;;;;;;;;10.85;84.00;101593.73;107635;1260;61942;-77
2024/04/12 03:38:24;;;;;;;;;;;;;;;10.87;83.82;101594.42;107671;1259;75190;-76
2024/04/12 03:40:30;;;;;;;;;;;;;;;10.88;83.49;101590.44;107647;1259;72967;-78
2024/04/12 03:43:02;;;;;;;;;;;;;;;10.88;83.15;101587.29;107581;1261;72776;-76
2024/04/12 03:45:35;;;;;;;;;;;;;;;10.86;83.14;101588.64;107571;1260;62050;-79
2024/04/12 03:48:04;;;;;;;;;;;;;;;10.85;83.41;101590.80;107592;1260;61962;-77
2024/04/12 03:50:31;;;;;;;;;;;;;;;10.84;83.75;101592.38;107571;1261;75380;-76
2024/04/12 03:53:07;;;;;;;;;;;;;;;10.84;83.72;101596.40;107535;1260;72916;-75
2024/04/12 03:55:34;;;;;;;;;;;;;;;10.85;83.59;101601.44;107536;1262;72420;-75
2024/04/12 03:58:03;;;;;;;;;;;;;;;10.88;83.22;101603.36;107550;1261;62004;-77
2024/04/12 04:00:38;;;;;;;;;;;;;;;10.90;83.62;101603.90;107581;1265;61923;-78
2024/04/12 04:03:09;;;;;;;;;;;;;;;10.92;83.97;101604.10;107548;1261;75308;-77
2024/04/12 04:05:36;;;;;;;;;;;;;;;10.92;83.75;101604.42;107547;1260;72840;-77
2024/04/12 04:08:04;;;;;;;;;;;;;;;10.93;82.99;101607.09;107537;1264;71559;-77
2024/04/12 04:10:31;;;;;;;;;;;;;;;10.96;82.60;101603.34;107539;1261;62076;-77
2024/04/12 04:12:57;;;;;;;;;;;;;;;10.98;81.57;101607.28;107496;1263;61925;-77
2024/04/12 04:15:25;;;;;;;;;;;;;;;11.02;81.02;101606.64;107609;1261;74274;-75
2024/04/12 04:17:53;;;;;;;;;;;;;;;11.10;80.82;101611.98;107586;1261;72585;-76
2024/04/12 04:20:26;;;;;;;;;;;;;;;11.16;80.39;101614.04;107667;1259;72373;-76
2024/04/12 04:23:02;;;;;;;;;;;;;;;11.22;79.42;101614.76;107630;1260;62056;-77
2024/04/12 04:25:31;;;;;;;;;;;;;;;11.27;78.53;101616.86;107581;1263;61996;-76
2024/04/12 04:27:58;;;;;;;;;;;;;;;11.31;77.13;101614.15;107487;1265;75317;-76
2024/04/12 04:30:25;;;;;;;;;;;;;;;11.33;75.50;101611.36;107524;1262;72607;-74
2024/04/12 04:32:53;;;;;;;;;;;;;;;11.34;74.81;101611.33;107558;1261;72813;-77
2024/04/12 04:35:26;;;;;;;;;;;;;;;11.39;74.30;101611.52;107556;1260;61901;-77
2024/04/12 04:37:55;;;;;;;;;;;;;;;11.46;74.14;101611.56;107602;1262;61895;-77
2024/04/12 04:40:25;;;;;;;;;;;;;;;11.52;73.72;101610.89;107572;1261;75579;-77
2024/04/12 04:42:54;;;;;;;;;;;;;;;11.60;73.55;101610.34;107544;1260;72597;-76
2024/04/12 04:45:21;;;;;;;;;;;;;;;11.62;72.91;101612.58;107567;1265;72486;-77
2024/04/12 04:47:48;;;;;;;;;;;;;;;11.70;71.78;101614.44;107609;1265;61906;-77
2024/04/12 04:50:18;;;;;;;;;;;;;;;11.79;71.36;101616.17;107652;1261;60129;-77
2024/04/12 04:52:45;;;;;;;;;;;;;;;11.87;70.38;101617.48;107581;1260;75370;-76
2024/04/12 04:55:12;;;;;;;;;;;;;;;11.94;69.67;101612.67;107554;1260;72969;-76
2024/04/12 04:57:47;;;;;;;;;;;;;;;12.01;68.78;101612.97;107608;1265;71578;-76
2024/04/12 05:00:22;;;;;;;;;;;;;;;12.08;67.84;101617.10;107598;1260;61897;-76
2024/04/12 05:02:53;;;;;;;;;;;;;;;12.13;67.60;101618.27;107579;1264;62026;-76
2024/04/12 05:05:28;;;;;;;;;;;;;;;12.17;67.07;101621.34;107472;1261;75329;-75
2024/04/12 05:07:57;;;;;;;;;;;;;;;12.23;67.10;101622.67;107534;1261;72826;-77
2024/04/12 05:10:24;;;;;;;;;;;;;;;12.31;66.46;101622.27;107549;1261;72751;-77
2024/04/12 05:12:51;;;;;;;;;;;;;;;12.39;66.22;101622.55;107543;1261;62161;-78
2024/04/12 05:18:20;;;;;;;;;;;;;;;12.56;65.76;101627.50;107340;1267;75623;-77
2024/04/12 05:20:48;;;;;;;;;;;;;;;12.64;65.55;101626.81;107507;1261;72912;-76
2024/04/12 05:23:17;;;;;;;;;;;;;;;12.74;64.89;101632.34;107570;1265;72575;-76
2024/04/12 05:25:46;;;;;;;;;;;;;;;12.83;64.34;101625.92;107615;1261;62537;-76
2024/04/12 05:28:12;;;;;;;;;;;;;;;12.92;64.07;101623.06;107598;1259;62394;-76
2024/04/12 05:30:42;;;;;;;;;;;;;;;13.03;63.18;101626.92;107633;1261;76814;-77
2024/04/12 05:33:10;;;;;;;;;;;;;;;13.13;61.83;101625.13;107632;1260;72703;-77
2024/04/12 05:35:37;;;;;;;;;;;;;;;13.26;61.36;101626.17;107627;1261;72690;-79
2024/04/12 05:38:07;;;;;;;;;;;;;;;13.39;60.12;101625.11;107634;1260;61964;-77
2024/04/12 05:40:45;;;;;;;;;;;;;;;13.52;58.41;101621.41;107711;1260;62052;-78
2024/04/12 05:43:15;;;;;;;;;;;;;;;13.66;57.34;101621.14;107660;1260;75450;-76
2024/04/12 05:45:44;;;;;;;;;;;;;;;13.78;56.17;101617.52;107648;1264;74017;-76
2024/04/12 05:48:14;;;;;;;;;;;;;;;13.89;55.06;101619.62;107492;1266;72738;-75
2024/04/12 05:50:42;;;;;;;;;;;;;;;14.00;53.88;101623.22;107593;1263;61907;-80
2024/04/12 05:53:12;;;;;;;;;;;;;;;14.10;53.16;101621.98;107541;1261;61919;-75
2024/04/12 05:55:44;;;;;;;;;;;;;;;14.22;52.36;101619.66;107527;1265;75425;-75
2024/04/12 05:58:12;;;;;;;;;;;;;;;14.34;51.08;101616.16;107532;1260;73974;-75
2024/04/12 06:00:43;;;;;;;;;;;;;;;14.46;49.12;101621.27;107613;1261;73043;-76
2024/04/12 06:03:16;;;;;;;;;;;;;;;14.55;47.99;101616.75;107609;1264;62462;-77
2024/04/12 06:05:55;;;;;;;;;;;;;;;14.66;47.48;101621.30;107568;1261;61949;-79
2024/04/12 06:08:22;;;;;;;;;;;;;;;14.76;46.52;101619.75;107595;1260;76695;-76
2024/04/12 06:10:50;;;;;;;;;;;;;;;14.83;45.93;101617.16;107587;1260;71799;-75
2024/04/12 06:13:17;;;;;;;;;;;;;;;14.90;45.90;101614.73;107546;1260;71314;-75
2024/04/12 06:15:45;;;;;;;;;;;;;;;15.00;46.13;101620.39;107526;1260;62046;-77
2024/04/12 06:18:13;;;;;;;;;;;;;;;15.11;46.02;101622.92;107541;1260;61921;-76
2024/04/12 06:20:40;;;;;;;;;;;;;;;15.18;45.09;101618.16;107503;1261;76703;-77
2024/04/12 06:23:06;;;;;;;;;;;;;;;15.25;44.86;101619.76;107624;1260;73970;-76
2024/04/12 06:25:43;;;;;;;;;;;;;;;15.31;44.59;101618.11;107576;1261;73797;-76
2024/04/12 06:28:13;;;;;;;;;;;;;;;15.40;44.51;101617.39;107450;1261;61968;-76
2024/04/12 06:30:59;;;;;;;;;;;;;;;15.50;44.50;101620.73;107592;1261;62134;-76
2024/04/12 06:33:28;;;;;;;;;;;;;;;15.57;43.42;101623.70;107495;1260;76132;-77
2024/04/12 06:36:11;;;;;;;;;;;;;;;15.62;43.37;101620.55;107746;1261;72824;-76
2024/04/12 06:38:39;;;;;;;;;;;;;;;15.68;42.59;101620.59;107542;1265;72369;-77
2024/04/12 06:41:10;;;;;;;;;;;;;;;15.74;42.56;101618.40;107535;1260;61930;-77
2024/04/12 06:43:37;;;;;;;;;;;;;;;15.82;42.06;101621.29;107667;1260;61907;-77
2024/04/12 06:46:11;;;;;;;;;;;;;;;15.88;41.28;101620.48;107698;1260;74441;-77
2024/04/12 06:48:41;;;;;;;;;;;;;;;15.91;41.34;101619.09;107545;1260;72680;-77
2024/04/12 06:51:11;;;;;;;;;;;;;;;15.96;41.24;101620.40;107605;1260;73975;-76
2024/04/12 06:53:45;;;;;;;;;;;;;;;16.02;40.42;101623.80;107604;1260;61943;-78
2024/04/12 06:56:16;;;;;;;;;;;;;;;16.02;40.56;101624.65;107535;1260;61222;-75
2024/04/12 06:58:46;;;;;;;;;;;;;;;16.02;40.86;101621.91;107594;1265;75987;-78
2024/04/12 07:01:13;;;;;;;;;;;;;;;16.12;41.48;101618.27;107290;1261;460242;-77
2024/04/12 07:03:45;;;;;;;;;;;;;;;15.86;41.33;101621.55;107544;1260;72813;-77
2024/04/12 07:06:16;;;;;;;;;;;;;;;15.75;40.38;101622.45;107588;1260;61955;-76
2024/04/12 07:08:49;;;;;;;;;;;;;;;15.76;40.37;101620.56;107544;1260;62006;-77
2024/04/12 07:11:17;;;;;;;;;;;;;;;15.78;39.67;101622.08;107544;1264;75210;-77
2024/04/12 07:13:49;;;;;;;;;;;;;;;15.78;39.05;101621.48;107550;1260;74032;-77
2024/04/12 07:16:18;;;;;;;;;;;;;;;15.78;39.06;101623.64;107553;1261;71942;-77
2024/04/12 07:18:47;;;;;;;;;;;;;;;15.84;39.38;101624.95;107552;1260;61080;-77
2024/04/12 07:21:18;;;;;;;;;;;;;;;15.95;39.17;101625.35;107626;1261;60515;-78
2024/04/12 07:23:49;;;;;;;;;;;;;;;15.96;39.07;101629.77;107736;1261;75914;-76
2024/04/12 07:26:27;;;;;;;;;;;;;;;15.99;38.76;101627.84;107692;1260;72092;-74
2024/04/12 07:29:01;;;;;;;;;;;;;;;16.01;39.01;101629.67;107673;1260;71565;-76
2024/04/12 07:31:34;;;;;;;;;;;;;;;16.05;39.24;101626.88;107582;1261;62057;-76
2024/04/12 07:34:05;;;;;;;;;;;;;;;16.09;39.36;101626.72;107595;1260;61940;-77
2024/04/12 07:36:33;;;;;;;;;;;;;;;16.17;39.49;101621.61;107617;1260;75407;-77
2024/04/12 07:39:01;;;;;;;;;;;;;;;16.28;39.88;101618.11;107735;1260;74053;-77
2024/04/12 07:41:31;;;;;;;;;;;;;;;16.43;40.02;101616.71;107755;1260;72363;-76
2024/04/12 07:43:58;;;;;;;;;;;;;;;16.56;39.19;101618.21;107653;1260;62214;-78
2024/04/12 07:46:33;;;;;;;;;;;;;;;16.63;39.14;101616.70;107675;1260;61858;-77
2024/04/12 07:49:03;;;;;;;;;;;;;;;16.69;38.88;101618.19;107690;1260;75671;-78
2024/04/12 07:51:39;;;;;;;;;;;;;;;16.63;38.43;101614.59;107702;1260;72783;-77
2024/04/12 07:54:11;;;;;;;;;;;;;;;16.63;38.56;101608.44;107645;1260;72971;-78
2024/04/12 07:56:45;;;;;;;;;;;;;;;16.64;38.70;101604.23;107684;1263;61898;-77
2024/04/12 07:59:15;;;;;;;;;;;;;;;16.68;38.27;101607.52;107732;1260;61936;-79
2024/04/12 08:01:46;;;;;;;;;;;;;;;16.70;38.55;101602.99;107671;1261;76339;-78
2024/04/12 08:04:36;;;;;;;;;;;;;;;16.75;38.35;101598.84;107671;1260;74068;-76
2024/04/12 08:07:13;;;;;;;;;;;;;;;16.81;38.33;101586.91;107683;1263;72618;-76
2024/04/12 08:09:42;;;;;;;;;;;;;;;16.89;38.39;101587.86;107671;1260;62111;-77
2024/04/12 08:12:17;;;;;;;;;;;;;;;16.97;38.39;101586.77;107685;1260;61920;-76
2024/04/12 08:15:06;;;;;;;;;;;;;;;17.04;38.27;101588.91;107688;1260;75527;-78
2024/04/12 08:17:39;;;;;;;;;;;;;;;17.11;38.41;101579.27;107703;1260;73910;-78
2024/04/12 08:20:14;;;;;;;;;;;;;;;17.21;38.62;101581.61;107632;1260;73173;-76
2024/04/12 08:22:43;;;;;;;;;;;;;;;17.32;38.35;101577.89;107573;1260;61942;-78
2024/04/12 08:25:09;;;;;;;;;;;;;;;17.39;37.78;101585.10;107572;1261;60812;-77
2024/04/12 08:27:36;;;;;;;;;;;;;;;17.42;36.94;101569.73;107624;1260;75618;-77
2024/04/12 08:30:13;;;;;;;;;;;;;;;17.46;37.26;101563.34;107708;1260;72802;-76
2024/04/12 08:32:48;;;;;;;;;;;;;;;17.56;37.59;101568.20;107531;1260;72783;-77
2024/04/12 08:35:19;;;;;;;;;;;;;;;17.62;36.46;101563.75;107439;1259;61924;-77
2024/04/12 08:37:47;;;;;;;;;;;;;;;17.63;36.14;101559.68;107609;1260;62702;-77
2024/04/12 08:40:19;;;;;;;;;;;;;;;17.66;36.24;101555.77;107804;1261;74435;-77
2024/04/12 08:42:47;;;;;;;;;;;;;;;17.73;36.04;101558.77;107611;1259;73154;-77
2024/04/12 08:45:18;;;;;;;;;;;;;;;17.72;35.55;101551.41;107529;1259;72559;-77
2024/04/12 08:48:02;;;;;;;;;;;;;;;17.70;35.26;101547.80;107586;1260;62437;-77
2024/04/12 08:50:31;;;;;;;;;;;;;;;17.71;35.33;101547.58;107519;1260;61961;-77
2024/04/12 08:52:58;;;;;;;;;;;;;;;17.73;35.20;101548.48;107658;1260;75567;-76
2024/04/12 08:55:28;;;;;;;;;;;;;;;17.75;35.21;101540.75;107654;1260;73848;-77
2024/04/12 08:57:57;;;;;;;;;;;;;;;17.77;35.12;101538.75;107644;1260;72484;-78
2024/04/12 09:00:28;;;;;;;;;;;;;;;17.74;34.65;101532.44;107520;1260;62059;-77
2024/04/12 09:03:02;;;;;;;;;;;;;;;17.75;34.49;101529.73;107516;1260;62034;-77
2024/04/12 09:05:30;;;;;;;;;;;;;;;17.75;33.61;101527.98;107554;1260;74756;-77
2024/04/12 09:08:02;;;;;;;;;;;;;;;17.76;33.13;101523.78;107602;1260;72838;-77
2024/04/12 09:10:35;;;;;;;;;;;;;;;17.80;33.13;101518.90;107624;1259;74104;-77
2024/04/12 09:13:08;;;;;;;;;;;;;;;17.88;33.87;101520.56;107576;1260;62027;-78
2024/04/12 09:15:35;;;;;;;;;;;;;;;17.98;33.85;101512.05;107522;1264;62052;-77
2024/04/12 09:18:13;;;;;;;;;;;;;;;18.13;34.31;101515.88;107570;1261;75496;-77
2024/04/12 09:20:58;;;;;;;;;;;;;;;18.16;33.86;101513.23;107520;1265;74020;-78
2024/04/12 09:23:36;;;;;;;;;;;;;;;18.15;33.88;101509.73;107737;1260;72054;-78
2024/04/12 09:28:56;;;;;;;;;;;;;;;18.21;34.00;101491.95;107670;1260;62761;-77
2024/04/12 09:34:29;;;;;;;;;;;;;;;18.46;33.37;101484.83;107595;1260;71855;-78
2024/04/12 09:37:28;;;;;;;;;;;;;;;18.53;33.34;101484.41;107485;1264;71833;-78
2024/04/12 09:42:45;;;;;;;;;;;;;;;18.63;33.19;101475.88;107606;1260;61915;-77
2024/04/12 09:45:20;;;;;;;;;;;;;;;18.71;31.96;101474.11;107570;1261;74696;-78
2024/04/12 10:37:51;;;;;;;;;;;;;;;20.00;29.82;101419.45;107543;1260;62133;-78
2024/04/12 10:40:21;;;;;;;;;;;;;;;19.87;30.00;101415.92;107595;1260;76798;-78
2024/04/12 10:42:52;;;;;;;;;;;;;;;19.55;30.79;101420.84;107594;1259;73985;-78
2024/04/12 10:45:19;;;;;;;;;;;;;;;19.52;30.75;101407.49;107554;1260;72090;-76
2024/04/12 10:47:46;;;;;;;;;;;;;;;19.57;31.18;101410.29;107503;1260;61923;-77
2024/04/12 10:50:13;;;;;;;;;;;;;;;19.64;31.27;101410.18;107591;1260;61372;-77
2024/04/12 10:52:42;;;;;;;;;;;;;;;19.68;31.15;101407.92;107576;1260;75451;-78
2024/04/12 10:55:10;;;;;;;;;;;;;;;19.68;31.25;101407.38;107544;1260;74165;-77
2024/04/12 10:57:40;;;;;;;;;;;;;;;19.71;30.68;101404.67;107569;1261;72477;-78
2024/04/12 11:00:07;;;;;;;;;;;;;;;19.73;30.92;101402.63;107534;1261;60702;-78
2024/04/12 11:02:35;;;;;;;;;;;;;;;19.73;30.58;101388.47;107625;1259;62008;-77
2024/04/12 11:05:38;;;;;;;;;;;;;;;19.80;30.75;101389.96;107583;1260;76603;-78
2024/04/12 11:07:54;;;;;;;;;;;;;;;19.89;29.18;101393.27;107607;1263;72654;-77
2024/04/12 11:10:25;;;;;;;;;;;;;;;19.90;29.54;101387.23;107604;1259;73877;-77
2024/04/12 11:12:59;;;;;;;;;;;;;;;19.93;29.55;101383.89;107548;1260;61923;-78
2024/04/12 11:31:55;;;;;;;;;;;;;;;20.39;28.95;101345.92;107505;1260;76730;-77
2024/04/12 11:34:25;;;;;;;;;;;;;;;20.17;30.04;101345.29;107600;1259;73849;-76
2024/04/12 11:37:06;;;;;;;;;;;;;;;20.25;30.23;101343.55;107500;1260;72490;-77
2024/04/12 11:39:36;;;;;;;;;;;;;;;20.36;30.04;101339.46;107551;1259;62032;-77
2024/04/12 11:42:03;;;;;;;;;;;;;;;20.50;29.75;101329.84;107615;1260;61981;-77
2024/04/12 11:44:33;;;;;;;;;;;;;;;20.67;29.90;101328.04;107618;1259;76182;-77
2024/04/12 11:47:03;;;;;;;;;;;;;;;20.71;29.21;101324.45;107717;1259;74032;-79
2024/04/12 11:49:41;;;;;;;;;;;;;;;20.57;29.19;101319.84;107601;1263;73777;-78
2024/04/12 11:52:15;;;;;;;;;;;;;;;20.36;29.38;101320.69;107597;1260;61930;-77
2024/04/12 11:54:53;;;;;;;;;;;;;;;20.16;30.46;101322.08;107569;1260;59875;-80
2024/04/12 11:57:22;;;;;;;;;;;;;;;20.12;30.80;101322.48;107598;1261;75986;-78
2024/04/12 11:59:58;;;;;;;;;;;;;;;20.18;30.61;101317.21;107580;1261;74225;-77
2024/04/12 12:02:27;;;;;;;;;;;;;;;20.28;30.55;101313.20;107587;1261;74005;-78
2024/04/12 12:04:56;;;;;;;;;;;;;;;20.37;30.44;101311.98;107511;1265;62030;-77
2024/04/12 12:07:23;;;;;;;;;;;;;;;20.44;30.76;101304.99;107601;1259;61949;-77
2024/04/12 12:09:50;;;;;;;;;;;;;;;20.60;30.60;101295.39;107556;1259;76559;-76
2024/04/12 12:12:21;;;;;;;;;;;;;;;20.71;30.92;101295.30;107577;1259;73405;-77
2024/04/12 12:14:51;;;;;;;;;;;;;;;20.60;31.69;101298.71;107572;1264;73187;-76
2024/04/12 12:17:19;;;;;;;;;;;;;;;20.64;31.17;101303.19;107574;1260;61948;-78
2024/04/12 12:19:50;;;;;;;;;;;;;;;20.66;31.14;101295.27;107566;1260;61924;-78
2024/04/12 12:22:18;;;;;;;;;;;;;;;20.64;31.30;101283.84;107626;1259;76394;-77
2024/04/12 12:24:45;;;;;;;;;;;;;;;20.68;31.54;101268.92;107678;1259;72015;-77
2024/04/12 12:27:12;;;;;;;;;;;;;;;20.79;31.84;101267.34;107546;1260;73196;-77
2024/04/12 12:29:42;;;;;;;;;;;;;;;20.90;32.22;101271.77;107671;1259;62645;-76
2024/04/12 12:32:11;;;;;;;;;;;;;;;20.98;31.86;101270.70;107632;1260;61921;-78
2024/04/12 12:34:38;;;;;;;;;;;;;;;21.04;32.01;101266.91;107570;1260;76228;-79
2024/04/12 12:37:06;;;;;;;;;;;;;;;21.11;31.94;101261.80;107630;1260;72585;-78
2024/04/12 12:39:33;;;;;;;;;;;;;;;21.13;32.13;101262.31;107530;1261;73507;-77
2024/04/12 12:42:03;;;;;;;;;;;;;;;21.08;32.15;101258.84;107554;1260;62150;-79
2024/04/12 12:44:30;;;;;;;;;;;;;;;21.00;32.36;101259.25;107604;1259;62045;-77
2024/04/12 12:47:05;;;;;;;;;;;;;;;20.94;33.14;101253.98;107638;1260;75536;-77
2024/04/12 12:49:46;;;;;;;;;;;;;;;20.87;33.18;101251.91;107536;1260;73621;-77
2024/04/12 12:52:14;;;;;;;;;;;;;;;20.81;33.74;101248.48;107544;1261;73248;-77
2024/04/12 12:54:42;;;;;;;;;;;;;;;20.86;33.60;101249.15;107574;1259;61943;-76
2024/04/12 12:57:10;;;;;;;;;;;;;;;21.30;33.03;101246.47;107664;1260;60077;-77
2024/04/12 12:59:40;;;;;;;;;;;;;;;21.43;32.52;101240.61;107599;1260;76728;-78
2024/04/12 13:02:07;;;;;;;;;;;;;;;21.47;32.60;101239.13;107630;1260;73684;-78
2024/04/12 13:04:34;;;;;;;;;;;;;;;21.49;32.71;101236.00;107631;1260;71671;-78
2024/04/12 13:07:07;;;;;;;;;;;;;;;21.48;32.77;101233.40;107619;1260;62479;-77
2024/04/12 13:09:35;;;;;;;;;;;;;;;21.52;32.91;101229.26;107564;1265;62121;-79
2024/04/12 13:12:03;;;;;;;;;;;;;;;21.60;33.24;101228.46;107630;1259;75790;-77
2024/04/12 13:14:32;;;;;;;;;;;;;;;21.69;33.63;101229.67;107744;1259;74097;-77
2024/04/12 13:17:02;;;;;;;;;;;;;;;21.72;33.28;101221.11;107723;1259;72740;-77
2024/04/12 13:19:30;;;;;;;;;;;;;;;21.74;33.26;101218.41;107706;1259;61925;-78
2024/04/12 13:21:58;;;;;;;;;;;;;;;21.76;33.44;101219.24;107707;1259;61965;-76
2024/04/12 13:24:25;;;;;;;;;;;;;;;21.81;33.46;101216.50;107650;1259;76710;-78
2024/04/12 13:26:54;;;;;;;;;;;;;;;21.84;33.12;101206.19;107590;1260;73828;-77
2024/04/12 13:29:39;;;;;;;;;;;;;;;21.87;32.94;101200.61;107658;1260;72947;-79
2024/04/12 13:32:39;;;;;;;;;;;;;;;21.85;32.70;101201.45;107552;1260;62057;-79
2024/04/12 13:35:12;;;;;;;;;;;;;;;21.79;32.95;101200.65;107553;1260;61895;-76
2024/04/12 13:37:39;;;;;;;;;;;;;;;21.75;33.01;101198.12;107577;1260;76832;-78
2024/04/12 13:40:08;;;;;;;;;;;;;;;21.73;32.93;101199.33;107530;1260;74065;-79
2024/04/12 13:42:39;;;;;;;;;;;;;;;21.41;33.81;101198.80;107644;1263;72714;-77
2024/04/12 13:50:56;;;;;;;;;;;;;;;21.70;33.58;101192.22;107589;1260;75105;-79
2024/04/12 13:53:35;;;;;;;;;;;;;;;21.75;33.52;101184.58;107577;1260;73899;-78
2024/04/12 13:56:25;;;;;;;;;;;;;;;21.73;33.67;101189.30;107557;1263;73708;-78
2024/04/12 13:58:56;;;;;;;;;;;;;;;21.71;33.43;101188.66;107566;1261;62063;-78
2024/04/12 14:01:26;;;;;;;;;;;;;;;21.67;33.71;101183.60;107614;1261;61910;-77
2024/04/12 14:03:54;;;;;;;;;;;;;;;21.68;33.76;101183.00;107602;1260;76540;-78
2024/04/12 14:06:23;;;;;;;;;;;;;;;21.70;33.87;101175.43;107522;1259;73926;-78
2024/04/12 14:08:54;;;;;;;;;;;;;;;21.75;34.02;101176.81;107605;1260;73369;-78